sensor_id;sensor_type;location;lat;lon;timestamp;pressure;altitude;pressure_sealevel;temperature;humidity
32933;BME280;19444;50.518;10.870;2023-06-26T00:00:14;96609.56;;;16.48;100.00
32933;BME280;19444;50.518;10.870;2023-06-26T00:03:11;96616.13;;;16.35;100.00
32933;BME280;19444;50.518;10.870;2023-06-26T00:06:11;96602.38;;;16.40;100.00
32933;BME280;19444;50.518;10.870;2023-06-26T00:09:08;96603.03;;;16.49;100.00
32933;BME280;19444;50.518;10.870;2023-06-26T00:12:05;96605.94;;;16.44;100.00
32933;BME280;19444;50.518;10.870;2023-06-26T00:15:02;96607.91;;;16.32;100.00
32933;BME280;19444;50.518;10.870;2023-06-26T00:17:59;96597.78;;;16.29;100.00
32933;BME280;19444;50.518;10.870;2023-06-26T00:20:56;96602.16;;;16.33;100.00
32933;BME280;19444;50.518;10.870;2023-06-26T00:23:53;96604.69;;;16.14;100.00
32933;BME280;19444;50.518;10.870;2023-06-26T00:26:50;96594.97;;;16.25;100.00
32933;BME280;19444;50.518;10.870;2023-06-26T00:29:47;96606.69;;;16.17;100.00
32933;BME280;19444;50.518;10.870;2023-06-26T00:32:44;96597.66;;;16.25;100.00
32933;BME280;19444;50.518;10.870;2023-06-26T00:35:41;96595.56;;;16.18;100.00
32933;BME280;19444;50.518;10.870;2023-06-26T00:38:38;96594.31;;;16.16;100.00
32933;BME280;19444;50.518;10.870;2023-06-26T00:41:36;96600.81;;;16.27;100.00
32933;BME280;19444;50.518;10.870;2023-06-26T00:44:33;96595.69;;;16.10;100.00
32933;BME280;19444;50.518;10.870;2023-06-26T00:47:30;96590.22;;;16.34;100.00
32933;BME280;19444;50.518;10.870;2023-06-26T00:50:27;96593.75;;;16.23;100.00
32933;BME280;19444;50.518;10.870;2023-06-26T00:53:24;96601.53;;;16.12;100.00
32933;BME280;19444;50.518;10.870;2023-06-26T00:56:22;96602.22;;;15.97;100.00
32933;BME280;19444;50.518;10.870;2023-06-26T00:59:19;96586.78;;;16.09;100.00
32933;BME280;19444;50.518;10.870;2023-06-26T01:02:16;96597.72;;;16.01;100.00
32933;BME280;19444;50.518;10.870;2023-06-26T01:05:17;96592.66;;;15.87;100.00
32933;BME280;19444;50.518;10.870;2023-06-26T01:08:18;96592.44;;;15.80;100.00
32933;BME280;19444;50.518;10.870;2023-06-26T01:11:15;96597.72;;;15.88;100.00
32933;BME280;19444;50.518;10.870;2023-06-26T01:14:13;96592.91;;;15.82;100.00
32933;BME280;19444;50.518;10.870;2023-06-26T01:17:10;96590.75;;;15.75;100.00
32933;BME280;19444;50.518;10.870;2023-06-26T01:20:12;96594.47;;;15.71;100.00
32933;BME280;19444;50.518;10.870;2023-06-26T01:23:22;96590.84;;;15.79;100.00
32933;BME280;19444;50.518;10.870;2023-06-26T01:26:22;96585.88;;;15.56;100.00
32933;BME280;19444;50.518;10.870;2023-06-26T01:29:20;96583.06;;;15.53;100.00
32933;BME280;19444;50.518;10.870;2023-06-26T01:32:20;96581.28;;;15.57;100.00
32933;BME280;19444;50.518;10.870;2023-06-26T01:35:18;96579.34;;;15.57;100.00
32933;BME280;19444;50.518;10.870;2023-06-26T01:38:20;96578.22;;;15.58;100.00
32933;BME280;19444;50.518;10.870;2023-06-26T01:41:18;96575.28;;;15.39;100.00
32933;BME280;19444;50.518;10.870;2023-06-26T01:44:37;96573.72;;;15.50;100.00
32933;BME280;19444;50.518;10.870;2023-06-26T01:47:42;96582.38;;;15.44;100.00
32933;BME280;19444;50.518;10.870;2023-06-26T01:50:40;96573.59;;;15.34;100.00
32933;BME280;19444;50.518;10.870;2023-06-26T01:53:41;96569.75;;;15.23;100.00
32933;BME280;19444;50.518;10.870;2023-06-26T01:56:42;96579.06;;;15.14;100.00
32933;BME280;19444;50.518;10.870;2023-06-26T01:59:42;96574.00;;;15.12;100.00
32933;BME280;19444;50.518;10.870;2023-06-26T02:02:41;96574.56;;;15.05;100.00
32933;BME280;19444;50.518;10.870;2023-06-26T02:05:39;96579.50;;;15.03;100.00
32933;BME280;19444;50.518;10.870;2023-06-26T02:08:38;96572.63;;;14.94;100.00
32933;BME280;19444;50.518;10.870;2023-06-26T02:11:34;96579.16;;;15.05;100.00
32933;BME280;19444;50.518;10.870;2023-06-26T02:14:32;96566.53;;;14.85;100.00
32933;BME280;19444;50.518;10.870;2023-06-26T02:17:28;96577.78;;;14.99;100.00
32933;BME280;19444;50.518;10.870;2023-06-26T02:20:25;96577.69;;;14.95;100.00
32933;BME280;19444;50.518;10.870;2023-06-26T02:23:22;96567.75;;;14.87;100.00
32933;BME280;19444;50.518;10.870;2023-06-26T02:26:19;96569.22;;;14.85;100.00
32933;BME280;19444;50.518;10.870;2023-06-26T02:29:17;96561.25;;;14.88;100.00
32933;BME280;19444;50.518;10.870;2023-06-26T02:32:14;96568.97;;;14.77;100.00
32933;BME280;19444;50.518;10.870;2023-06-26T02:35:11;96571.34;;;14.79;100.00
32933;BME280;19444;50.518;10.870;2023-06-26T02:38:08;96566.28;;;14.77;100.00
32933;BME280;19444;50.518;10.870;2023-06-26T02:41:05;96568.44;;;14.84;100.00
32933;BME280;19444;50.518;10.870;2023-06-26T02:44:01;96567.28;;;14.73;100.00
32933;BME280;19444;50.518;10.870;2023-06-26T02:46:58;96568.78;;;14.62;100.00
32933;BME280;19444;50.518;10.870;2023-06-26T02:49:55;96571.91;;;14.51;100.00
32933;BME280;19444;50.518;10.870;2023-06-26T02:52:52;96570.66;;;14.49;100.00
32933;BME280;19444;50.518;10.870;2023-06-26T02:55:49;96563.41;;;14.62;100.00
32933;BME280;19444;50.518;10.870;2023-06-26T02:58:46;96560.22;;;14.47;100.00
32933;BME280;19444;50.518;10.870;2023-06-26T03:01:43;96557.22;;;14.40;100.00
32933;BME280;19444;50.518;10.870;2023-06-26T03:04:40;96551.59;;;14.54;100.00
32933;BME280;19444;50.518;10.870;2023-06-26T03:07:37;96556.84;;;14.50;100.00
32933;BME280;19444;50.518;10.870;2023-06-26T03:10:34;96552.75;;;14.44;100.00
32933;BME280;19444;50.518;10.870;2023-06-26T03:13:32;96552.75;;;14.44;100.00
32933;BME280;19444;50.518;10.870;2023-06-26T03:16:29;96554.16;;;14.50;100.00
32933;BME280;19444;50.518;10.870;2023-06-26T03:19:26;96553.41;;;14.41;100.00
32933;BME280;19444;50.518;10.870;2023-06-26T03:22:23;96561.78;;;14.28;100.00
32933;BME280;19444;50.518;10.870;2023-06-26T03:25:19;96564.06;;;14.38;100.00
32933;BME280;19444;50.518;10.870;2023-06-26T03:28:16;96569.09;;;14.27;100.00
32933;BME280;19444;50.518;10.870;2023-06-26T03:31:13;96573.91;;;14.34;100.00
32933;BME280;19444;50.518;10.870;2023-06-26T03:34:10;96564.25;;;14.33;100.00
32933;BME280;19444;50.518;10.870;2023-06-26T03:37:07;96564.47;;;14.28;100.00
32933;BME280;19444;50.518;10.870;2023-06-26T03:40:05;96553.22;;;14.26;100.00
32933;BME280;19444;50.518;10.870;2023-06-26T03:43:01;96558.88;;;14.33;100.00
32933;BME280;19444;50.518;10.870;2023-06-26T03:45:59;96549.31;;;14.35;100.00
32933;BME280;19444;50.518;10.870;2023-06-26T03:48:56;96564.06;;;14.17;100.00
32933;BME280;19444;50.518;10.870;2023-06-26T03:51:53;96557.09;;;14.16;100.00
32933;BME280;19444;50.518;10.870;2023-06-26T03:54:50;96555.19;;;14.16;100.00
32933;BME280;19444;50.518;10.870;2023-06-26T03:57:47;96545.28;;;14.29;100.00
32933;BME280;19444;50.518;10.870;2023-06-26T04:00:43;96561.69;;;14.15;100.00
32933;BME280;19444;50.518;10.870;2023-06-26T04:03:40;96561.50;;;14.20;100.00
32933;BME280;19444;50.518;10.870;2023-06-26T04:06:37;96557.50;;;14.27;100.00
32933;BME280;19444;50.518;10.870;2023-06-26T04:09:34;96555.06;;;14.34;100.00
32933;BME280;19444;50.518;10.870;2023-06-26T04:12:31;96549.31;;;14.35;100.00
32933;BME280;19444;50.518;10.870;2023-06-26T04:15:28;96551.94;;;14.44;100.00
32933;BME280;19444;50.518;10.870;2023-06-26T04:18:25;96547.69;;;14.43;100.00
32933;BME280;19444;50.518;10.870;2023-06-26T04:21:24;96552.38;;;14.55;100.00
32933;BME280;19444;50.518;10.870;2023-06-26T04:24:21;96543.16;;;14.56;100.00
32933;BME280;19444;50.518;10.870;2023-06-26T04:27:19;96548.00;;;14.62;100.00
32933;BME280;19444;50.518;10.870;2023-06-26T04:30:16;96540.84;;;14.66;100.00
32933;BME280;19444;50.518;10.870;2023-06-26T04:33:13;96544.09;;;14.72;100.00
32933;BME280;19444;50.518;10.870;2023-06-26T04:36:09;96543.91;;;14.77;100.00
32933;BME280;19444;50.518;10.870;2023-06-26T04:39:07;96529.78;;;14.92;100.00
32933;BME280;19444;50.518;10.870;2023-06-26T04:42:05;96536.63;;;14.90;100.00
32933;BME280;19444;50.518;10.870;2023-06-26T04:45:03;96532.94;;;15.06;100.00
32933;BME280;19444;50.518;10.870;2023-06-26T04:48:00;96531.38;;;15.05;100.00
32933;BME280;19444;50.518;10.870;2023-06-26T04:50:57;96535.44;;;15.24;100.00
32933;BME280;19444;50.518;10.870;2023-06-26T04:53:55;96531.94;;;15.11;100.00
32933;BME280;19444;50.518;10.870;2023-06-26T04:56:52;96531.16;;;15.11;100.00
32933;BME280;19444;50.518;10.870;2023-06-26T04:59:49;96525.00;;;15.22;100.00
32933;BME280;19444;50.518;10.870;2023-06-26T05:02:46;96525.56;;;15.40;100.00
32933;BME280;19444;50.518;10.870;2023-06-26T05:05:43;96521.75;;;15.29;100.00
32933;BME280;19444;50.518;10.870;2023-06-26T05:08:40;96529.16;;;15.44;100.00
32933;BME280;19444;50.518;10.870;2023-06-26T05:11:37;96518.00;;;15.58;100.00
32933;BME280;19444;50.518;10.870;2023-06-26T05:14:34;96520.16;;;15.40;100.00
32933;BME280;19444;50.518;10.870;2023-06-26T05:17:32;96525.22;;;15.42;100.00
32933;BME280;19444;50.518;10.870;2023-06-26T05:20:32;96522.06;;;15.40;100.00
32933;BME280;19444;50.518;10.870;2023-06-26T05:23:33;96510.47;;;15.39;100.00
32933;BME280;19444;50.518;10.870;2023-06-26T05:26:31;96521.25;;;15.02;100.00
32933;BME280;19444;50.518;10.870;2023-06-26T05:29:30;96514.41;;;15.42;100.00
32933;BME280;19444;50.518;10.870;2023-06-26T05:32:27;96513.28;;;15.30;100.00
32933;BME280;19444;50.518;10.870;2023-06-26T05:35:28;96516.44;;;15.45;100.00
32933;BME280;19444;50.518;10.870;2023-06-26T05:38:27;96516.91;;;15.47;100.00
32933;BME280;19444;50.518;10.870;2023-06-26T05:41:24;96515.44;;;15.49;100.00
32933;BME280;19444;50.518;10.870;2023-06-26T05:44:21;96510.81;;;15.62;100.00
32933;BME280;19444;50.518;10.870;2023-06-26T05:47:18;96517.69;;;15.72;100.00
32933;BME280;19444;50.518;10.870;2023-06-26T05:50:16;96521.97;;;15.73;100.00
32933;BME280;19444;50.518;10.870;2023-06-26T05:53:14;96511.94;;;15.85;100.00
32933;BME280;19444;50.518;10.870;2023-06-26T05:56:11;96505.03;;;16.00;100.00
32933;BME280;19444;50.518;10.870;2023-06-26T05:59:10;96504.25;;;15.87;100.00
32933;BME280;19444;50.518;10.870;2023-06-26T06:02:07;96502.06;;;16.05;100.00
32933;BME280;19444;50.518;10.870;2023-06-26T06:05:05;96502.72;;;16.14;100.00
32933;BME280;19444;50.518;10.870;2023-06-26T06:08:03;96500.88;;;16.31;100.00
32933;BME280;19444;50.518;10.870;2023-06-26T06:11:00;96495.16;;;16.48;100.00
32933;BME280;19444;50.518;10.870;2023-06-26T06:13:58;96497.16;;;16.51;100.00
32933;BME280;19444;50.518;10.870;2023-06-26T06:16:56;96505.22;;;16.63;100.00
32933;BME280;19444;50.518;10.870;2023-06-26T06:19:53;96506.00;;;16.76;100.00
32933;BME280;19444;50.518;10.870;2023-06-26T06:22:50;96501.81;;;16.94;100.00
32933;BME280;19444;50.518;10.870;2023-06-26T06:25:47;96490.38;;;17.01;100.00
32933;BME280;19444;50.518;10.870;2023-06-26T06:28:44;96489.41;;;17.09;100.00
32933;BME280;19444;50.518;10.870;2023-06-26T06:31:41;96489.69;;;17.20;100.00
32933;BME280;19444;50.518;10.870;2023-06-26T06:34:37;96491.16;;;17.33;100.00
32933;BME280;19444;50.518;10.870;2023-06-26T06:37:36;96484.41;;;17.43;100.00
32933;BME280;19444;50.518;10.870;2023-06-26T06:40:33;96485.19;;;17.59;100.00
32933;BME280;19444;50.518;10.870;2023-06-26T06:43:30;96479.09;;;17.81;100.00
32933;BME280;19444;50.518;10.870;2023-06-26T06:46:27;96465.28;;;18.06;100.00
32933;BME280;19444;50.518;10.870;2023-06-26T06:49:24;96456.09;;;18.30;100.00
32933;BME280;19444;50.518;10.870;2023-06-26T06:52:21;96458.69;;;18.45;100.00
32933;BME280;19444;50.518;10.870;2023-06-26T06:55:17;96458.97;;;18.60;100.00
32933;BME280;19444;50.518;10.870;2023-06-26T06:58:15;96461.25;;;18.77;100.00
32933;BME280;19444;50.518;10.870;2023-06-26T07:01:14;96459.31;;;18.78;100.00
32933;BME280;19444;50.518;10.870;2023-06-26T07:04:11;96462.59;;;19.36;100.00
32933;BME280;19444;50.518;10.870;2023-06-26T07:07:08;96455.69;;;19.39;100.00
32933;BME280;19444;50.518;10.870;2023-06-26T07:10:12;96458.09;;;19.70;100.00
32933;BME280;19444;50.518;10.870;2023-06-26T07:13:09;96451.03;;;19.66;100.00
32933;BME280;19444;50.518;10.870;2023-06-26T07:16:06;96450.31;;;19.99;100.00
32933;BME280;19444;50.518;10.870;2023-06-26T07:19:03;96450.00;;;20.04;100.00
32933;BME280;19444;50.518;10.870;2023-06-26T07:22:00;96448.78;;;20.01;100.00
32933;BME280;19444;50.518;10.870;2023-06-26T07:24:57;96443.06;;;20.10;100.00
32933;BME280;19444;50.518;10.870;2023-06-26T07:27:54;96450.47;;;19.83;100.00
32933;BME280;19444;50.518;10.870;2023-06-26T07:30:51;96444.63;;;19.81;100.00
32933;BME280;19444;50.518;10.870;2023-06-26T07:33:48;96440.25;;;20.03;100.00
32933;BME280;19444;50.518;10.870;2023-06-26T07:36:45;96451.59;;;20.08;100.00
32933;BME280;19444;50.518;10.870;2023-06-26T07:39:42;96448.59;;;20.51;100.00
32933;BME280;19444;50.518;10.870;2023-06-26T07:42:38;96443.09;;;20.84;100.00
32933;BME280;19444;50.518;10.870;2023-06-26T07:45:37;96452.09;;;20.92;100.00
32933;BME280;19444;50.518;10.870;2023-06-26T07:48:34;96450.94;;;20.89;100.00
32933;BME280;19444;50.518;10.870;2023-06-26T07:51:31;96445.31;;;21.16;100.00
32933;BME280;19444;50.518;10.870;2023-06-26T07:54:28;96441.88;;;21.22;100.00
32933;BME280;19444;50.518;10.870;2023-06-26T07:57:26;96441.59;;;21.38;100.00
32933;BME280;19444;50.518;10.870;2023-06-26T08:00:23;96443.28;;;21.57;100.00
32933;BME280;19444;50.518;10.870;2023-06-26T08:03:20;96435.53;;;21.63;100.00
32933;BME280;19444;50.518;10.870;2023-06-26T08:06:31;96433.00;;;21.95;100.00
32933;BME280;19444;50.518;10.870;2023-06-26T08:09:30;96427.38;;;22.53;100.00
32933;BME280;19444;50.518;10.870;2023-06-26T08:12:27;96426.66;;;23.42;100.00
32933;BME280;19444;50.518;10.870;2023-06-26T08:15:24;96420.41;;;23.31;100.00
32933;BME280;19444;50.518;10.870;2023-06-26T08:18:21;96420.38;;;23.66;100.00
32933;BME280;19444;50.518;10.870;2023-06-26T08:21:18;96409.75;;;23.90;99.24
32933;BME280;19444;50.518;10.870;2023-06-26T08:24:15;96413.25;;;23.94;100.00
32933;BME280;19444;50.518;10.870;2023-06-26T08:27:15;96406.28;;;23.75;100.00
32933;BME280;19444;50.518;10.870;2023-06-26T08:30:12;96411.59;;;24.25;100.00
32933;BME280;19444;50.518;10.870;2023-06-26T08:33:09;96407.84;;;23.87;96.07
32933;BME280;19444;50.518;10.870;2023-06-26T08:36:09;96415.16;;;24.11;87.73
32933;BME280;19444;50.518;10.870;2023-06-26T08:39:05;96406.97;;;24.07;89.30
32933;BME280;19444;50.518;10.870;2023-06-26T08:42:02;96399.00;;;24.31;93.31
32933;BME280;19444;50.518;10.870;2023-06-26T08:45:00;96402.72;;;23.96;86.51
32933;BME280;19444;50.518;10.870;2023-06-26T08:48:00;96406.88;;;24.25;86.83
32933;BME280;19444;50.518;10.870;2023-06-26T08:51:09;96404.41;;;24.52;90.96
32933;BME280;19444;50.518;10.870;2023-06-26T08:54:12;96403.53;;;24.70;87.28
32933;BME280;19444;50.518;10.870;2023-06-26T08:57:14;96399.56;;;24.74;100.00
32933;BME280;19444;50.518;10.870;2023-06-26T09:00:16;96403.25;;;24.50;81.47
32933;BME280;19444;50.518;10.870;2023-06-26T09:03:13;96401.34;;;25.02;97.36
32933;BME280;19444;50.518;10.870;2023-06-26T09:06:11;96405.25;;;25.01;85.30
32933;BME280;19444;50.518;10.870;2023-06-26T09:09:08;96400.72;;;24.80;76.15
32933;BME280;19444;50.518;10.870;2023-06-26T09:12:05;96400.06;;;25.14;77.70
32933;BME280;19444;50.518;10.870;2023-06-26T09:15:02;96396.97;;;25.53;90.20
32933;BME280;19444;50.518;10.870;2023-06-26T09:18:00;96399.16;;;25.72;85.29
32933;BME280;19444;50.518;10.870;2023-06-26T09:20:57;96394.19;;;25.57;71.05
32933;BME280;19444;50.518;10.870;2023-06-26T09:23:55;96394.72;;;25.82;71.87
32933;BME280;19444;50.518;10.870;2023-06-26T09:26:52;96393.44;;;25.90;69.28
32933;BME280;19444;50.518;10.870;2023-06-26T09:29:49;96383.19;;;25.94;71.01
32933;BME280;19444;50.518;10.870;2023-06-26T09:32:47;96388.47;;;26.12;84.01
32933;BME280;19444;50.518;10.870;2023-06-26T09:35:44;96376.88;;;26.28;78.58
32933;BME280;19444;50.518;10.870;2023-06-26T09:38:42;96374.84;;;26.32;76.53
32933;BME280;19444;50.518;10.870;2023-06-26T09:41:43;96380.50;;;26.21;64.33
32933;BME280;19444;50.518;10.870;2023-06-26T09:44:45;96371.19;;;26.46;62.04
32933;BME280;19444;50.518;10.870;2023-06-26T09:47:44;96378.28;;;26.43;51.08
32933;BME280;19444;50.518;10.870;2023-06-26T09:50:42;96369.00;;;26.30;51.85
32933;BME280;19444;50.518;10.870;2023-06-26T09:54:03;96377.28;;;26.57;55.36
32933;BME280;19444;50.518;10.870;2023-06-26T09:57:17;96367.22;;;26.74;55.19
32933;BME280;19444;50.518;10.870;2023-06-26T10:00:14;96359.50;;;26.65;50.51
32933;BME280;19444;50.518;10.870;2023-06-26T10:03:11;96366.69;;;26.82;48.93
32933;BME280;19444;50.518;10.870;2023-06-26T10:06:09;96363.94;;;27.09;50.57
32933;BME280;19444;50.518;10.870;2023-06-26T10:09:08;96361.91;;;26.86;55.79
32933;BME280;19444;50.518;10.870;2023-06-26T10:12:18;96362.38;;;27.08;56.58
32933;BME280;19444;50.518;10.870;2023-06-26T10:15:16;96363.94;;;27.09;54.08
32933;BME280;19444;50.518;10.870;2023-06-26T10:18:15;96363.09;;;26.85;45.45
32933;BME280;19444;50.518;10.870;2023-06-26T10:21:14;96360.13;;;27.00;48.48
32933;BME280;19444;50.518;10.870;2023-06-26T10:24:12;96357.31;;;27.07;47.75
32933;BME280;19444;50.518;10.870;2023-06-26T10:27:19;96357.47;;;27.19;46.96
32933;BME280;19444;50.518;10.870;2023-06-26T10:30:23;96349.28;;;27.16;48.85
32933;BME280;19444;50.518;10.870;2023-06-26T10:33:22;96333.25;;;27.54;49.51
32933;BME280;19444;50.518;10.870;2023-06-26T10:36:29;96337.22;;;27.30;42.27
32933;BME280;19444;50.518;10.870;2023-06-26T10:39:27;96328.22;;;27.29;43.47
32933;BME280;19444;50.518;10.870;2023-06-26T10:42:38;96337.84;;;28.00;42.23
32933;BME280;19444;50.518;10.870;2023-06-26T10:45:36;96325.63;;;28.01;43.71
32933;BME280;19444;50.518;10.870;2023-06-26T10:49:00;96317.22;;;27.89;42.25
32933;BME280;19444;50.518;10.870;2023-06-26T10:52:01;96329.28;;;27.55;40.63
32933;BME280;19444;50.518;10.870;2023-06-26T10:54:58;96317.63;;;28.07;45.36
32933;BME280;19444;50.518;10.870;2023-06-26T10:57:57;96306.63;;;28.23;39.91
32933;BME280;19444;50.518;10.870;2023-06-26T11:01:18;96302.03;;;27.61;40.40
32933;BME280;19444;50.518;10.870;2023-06-26T11:04:17;96295.84;;;27.76;42.64
32933;BME280;19444;50.518;10.870;2023-06-26T11:07:22;96299.03;;;28.31;41.53
32933;BME280;19444;50.518;10.870;2023-06-26T11:10:20;96294.13;;;28.55;43.45
32933;BME280;19444;50.518;10.870;2023-06-26T11:13:18;96299.16;;;28.24;40.44
32933;BME280;19444;50.518;10.870;2023-06-26T11:16:16;96311.59;;;27.76;39.29
32933;BME280;19444;50.518;10.870;2023-06-26T11:19:14;96302.09;;;28.17;39.14
32933;BME280;19444;50.518;10.870;2023-06-26T11:22:12;96288.94;;;28.04;38.75
32933;BME280;19444;50.518;10.870;2023-06-26T11:25:11;96298.50;;;28.52;38.85
32933;BME280;19444;50.518;10.870;2023-06-26T11:28:10;96290.84;;;28.60;37.24
32933;BME280;19444;50.518;10.870;2023-06-26T11:31:07;96295.38;;;29.15;36.63
32933;BME280;19444;50.518;10.870;2023-06-26T11:34:10;96304.97;;;28.62;37.16
32933;BME280;19444;50.518;10.870;2023-06-26T11:37:08;96303.78;;;28.96;37.64
32933;BME280;19444;50.518;10.870;2023-06-26T11:40:19;96297.06;;;28.80;38.10
32933;BME280;19444;50.518;10.870;2023-06-26T11:43:16;96287.59;;;28.13;38.88
32933;BME280;19444;50.518;10.870;2023-06-26T11:46:16;96296.97;;;27.79;39.04
32933;BME280;19444;50.518;10.870;2023-06-26T11:49:16;96291.16;;;27.34;38.71
32933;BME280;19444;50.518;10.870;2023-06-26T11:52:14;96299.00;;;27.55;38.94
32933;BME280;19444;50.518;10.870;2023-06-26T11:55:11;96289.28;;;28.43;37.37
32933;BME280;19444;50.518;10.870;2023-06-26T11:58:08;96275.00;;;28.97;37.42
32933;BME280;19444;50.518;10.870;2023-06-26T12:01:05;96280.34;;;29.33;35.68
32933;BME280;19444;50.518;10.870;2023-06-26T12:04:05;96278.06;;;29.15;36.11
32933;BME280;19444;50.518;10.870;2023-06-26T12:07:03;96279.69;;;29.58;36.72
32933;BME280;19444;50.518;10.870;2023-06-26T12:10:02;96279.31;;;28.65;37.31
32933;BME280;19444;50.518;10.870;2023-06-26T12:13:00;96278.34;;;29.04;37.04
32933;BME280;19444;50.518;10.870;2023-06-26T12:15:58;96287.84;;;28.38;36.44
32933;BME280;19444;50.518;10.870;2023-06-26T12:19:00;96288.13;;;27.88;37.80
32933;BME280;19444;50.518;10.870;2023-06-26T12:21:58;96277.75;;;27.56;39.55
32933;BME280;19444;50.518;10.870;2023-06-26T12:24:56;96282.59;;;27.71;38.82
32933;BME280;19444;50.518;10.870;2023-06-26T12:27:54;96284.38;;;27.58;38.57
32933;BME280;19444;50.518;10.870;2023-06-26T12:31:16;96283.09;;;27.43;39.66
32933;BME280;19444;50.518;10.870;2023-06-26T12:34:15;96290.66;;;27.19;40.09
32933;BME280;19444;50.518;10.870;2023-06-26T12:37:15;96289.75;;;26.55;41.29
32933;BME280;19444;50.518;10.870;2023-06-26T12:40:20;96281.84;;;26.34;42.05
32933;BME280;19444;50.518;10.870;2023-06-26T12:43:23;96303.16;;;26.23;43.58
32933;BME280;19444;50.518;10.870;2023-06-26T12:46:20;96296.28;;;26.88;41.12
32933;BME280;19444;50.518;10.870;2023-06-26T12:49:36;96289.69;;;27.29;41.46
32933;BME280;19444;50.518;10.870;2023-06-26T12:52:33;96287.66;;;26.86;43.25
32933;BME280;19444;50.518;10.870;2023-06-26T12:55:30;96282.06;;;27.17;44.73
32933;BME280;19444;50.518;10.870;2023-06-26T12:58:27;96275.91;;;27.49;45.95
32933;BME280;19444;50.518;10.870;2023-06-26T13:01:24;96270.00;;;27.90;46.47
32933;BME280;19444;50.518;10.870;2023-06-26T13:04:22;96274.16;;;27.39;52.47
32933;BME280;19444;50.518;10.870;2023-06-26T13:07:18;96284.75;;;26.74;57.85
32933;BME280;19444;50.518;10.870;2023-06-26T13:10:16;96269.16;;;27.73;50.95
32933;BME280;19444;50.518;10.870;2023-06-26T13:13:13;96264.28;;;27.81;47.88
32933;BME280;19444;50.518;10.870;2023-06-26T13:16:10;96259.69;;;28.63;45.38
32933;BME280;19444;50.518;10.870;2023-06-26T13:19:07;96258.28;;;28.71;48.75
32933;BME280;19444;50.518;10.870;2023-06-26T13:22:04;96247.06;;;27.57;51.94
32933;BME280;19444;50.518;10.870;2023-06-26T13:25:01;96256.16;;;27.14;50.63
32933;BME280;19444;50.518;10.870;2023-06-26T13:27:58;96246.34;;;28.09;46.28
32933;BME280;19444;50.518;10.870;2023-06-26T13:30:55;96254.06;;;27.62;54.66
32933;BME280;19444;50.518;10.870;2023-06-26T13:33:52;96257.44;;;28.58;46.62
32933;BME280;19444;50.518;10.870;2023-06-26T13:36:49;96246.44;;;28.22;47.27
32933;BME280;19444;50.518;10.870;2023-06-26T13:39:46;96245.00;;;28.66;47.58
32933;BME280;19444;50.518;10.870;2023-06-26T13:42:46;96237.81;;;27.67;56.59
32933;BME280;19444;50.518;10.870;2023-06-26T13:45:43;96239.94;;;27.20;58.91
32933;BME280;19444;50.518;10.870;2023-06-26T13:48:40;96245.53;;;26.70;57.68
32933;BME280;19444;50.518;10.870;2023-06-26T13:51:37;96243.56;;;26.47;58.41
32933;BME280;19444;50.518;10.870;2023-06-26T13:54:36;96246.44;;;26.63;68.95
32933;BME280;19444;50.518;10.870;2023-06-26T13:57:35;96236.97;;;27.31;54.84
32933;BME280;19444;50.518;10.870;2023-06-26T14:00:38;96238.78;;;27.77;52.24
32933;BME280;19444;50.518;10.870;2023-06-26T14:03:35;96233.53;;;27.07;58.34
32933;BME280;19444;50.518;10.870;2023-06-26T14:06:32;96244.81;;;26.89;65.37
32933;BME280;19444;50.518;10.870;2023-06-26T14:09:31;96242.34;;;26.94;58.76
32933;BME280;19444;50.518;10.870;2023-06-26T14:12:28;96244.03;;;27.71;58.11
32933;BME280;19444;50.518;10.870;2023-06-26T14:15:25;96252.41;;;26.81;65.74
32933;BME280;19444;50.518;10.870;2023-06-26T14:18:21;96251.81;;;26.47;65.63
32933;BME280;19444;50.518;10.870;2023-06-26T14:21:21;96249.06;;;26.47;66.81
32933;BME280;19444;50.518;10.870;2023-06-26T14:24:18;96243.16;;;26.21;75.62
32933;BME280;19444;50.518;10.870;2023-06-26T14:27:15;96270.06;;;26.06;74.30
32933;BME280;19444;50.518;10.870;2023-06-26T14:30:12;96265.38;;;25.76;77.65
32933;BME280;19444;50.518;10.870;2023-06-26T14:33:10;96282.28;;;26.02;85.55
32933;BME280;19444;50.518;10.870;2023-06-26T14:36:07;96278.00;;;25.70;88.01
32933;BME280;19444;50.518;10.870;2023-06-26T14:39:04;96270.38;;;26.39;80.34
32933;BME280;19444;50.518;10.870;2023-06-26T14:42:07;96272.25;;;26.69;77.26
32933;BME280;19444;50.518;10.870;2023-06-26T14:45:05;96265.22;;;27.35;74.29
32933;BME280;19444;50.518;10.870;2023-06-26T14:48:03;96274.13;;;26.52;86.60
32933;BME280;19444;50.518;10.870;2023-06-26T14:51:00;96266.66;;;26.53;85.81
32933;BME280;19444;50.518;10.870;2023-06-26T14:53:57;96266.75;;;26.69;85.26
32933;BME280;19444;50.518;10.870;2023-06-26T14:56:54;96269.66;;;26.35;85.90
32933;BME280;19444;50.518;10.870;2023-06-26T14:59:51;96280.72;;;25.36;98.08
32933;BME280;19444;50.518;10.870;2023-06-26T15:02:48;96284.53;;;25.46;97.50
32933;BME280;19444;50.518;10.870;2023-06-26T15:05:45;96289.22;;;25.15;100.00
32933;BME280;19444;50.518;10.870;2023-06-26T15:08:42;96298.16;;;25.87;93.00
32933;BME280;19444;50.518;10.870;2023-06-26T15:11:39;96310.94;;;25.33;95.75
32933;BME280;19444;50.518;10.870;2023-06-26T15:14:36;96300.50;;;25.55;94.71
32933;BME280;19444;50.518;10.870;2023-06-26T15:17:33;96309.69;;;25.75;91.16
32933;BME280;19444;50.518;10.870;2023-06-26T15:20:30;96293.00;;;25.93;93.95
32933;BME280;19444;50.518;10.870;2023-06-26T15:23:27;96281.59;;;25.60;99.30
32933;BME280;19444;50.518;10.870;2023-06-26T15:26:24;96287.31;;;26.61;90.83